createdAt,value
2023-01-05T00:01:05.761Z,29.95
2023-01-05T00:06:04.903Z,36.60
2023-01-05T00:11:23.394Z,28.65
2023-01-05T00:16:38.473Z,29.63
2023-01-05T00:21:53.761Z,30.97
2023-01-05T00:26:51.245Z,38.67
2023-01-05T00:31:48.221Z,38.92
2023-01-05T00:36:45.075Z,36.78
2023-01-05T00:41:41.867Z,36.05
2023-01-05T00:46:39.421Z,35.30
2023-01-05T00:51:36.243Z,35.78
2023-01-05T00:56:33.147Z,38.30
2023-01-05T01:01:30.032Z,42.13
2023-01-05T01:06:28.838Z,35.78
2023-01-05T01:11:25.594Z,38.55
2023-01-05T01:16:22.949Z,38.78
2023-01-05T01:21:19.752Z,40.10
2023-01-05T01:26:17.742Z,35.63
2023-01-05T01:31:14.760Z,40.42
2023-01-05T01:36:11.615Z,38.65
2023-01-05T01:41:08.529Z,34.28
2023-01-05T01:46:06.725Z,38.75
2023-01-05T01:51:10.271Z,34.17
2023-01-05T01:56:10.202Z,34.60
2023-01-05T02:01:08.176Z,38.72
2023-01-05T02:06:05.561Z,34.83
2023-01-05T02:11:27.647Z,34.88
2023-01-05T02:16:33.665Z,38.85
2023-01-05T02:21:44.423Z,34.28
2023-01-05T02:27:21.965Z,31.95
2023-01-05T02:32:23.903Z,36.95
2023-01-05T02:37:28.324Z,35.28
2023-01-05T02:42:28.307Z,37.60
2023-01-05T02:47:38.241Z,36.38
2023-01-05T02:52:43.206Z,40.17
2023-01-05T02:57:47.327Z,33.15
2023-01-05T03:02:53.536Z,38.03
2023-01-05T03:07:51.962Z,39.72
2023-01-05T03:13:10.828Z,37.30
2023-01-05T03:18:12.429Z,38.70
2023-01-05T03:23:36.079Z,36.08
2023-01-05T03:28:57.144Z,37.28
2023-01-05T03:34:24.993Z,34.90
2023-01-05T03:39:26.225Z,36.30
2023-01-05T03:44:23.959Z,36.53
2023-01-05T03:49:21.558Z,34.00
2023-01-05T03:54:20.827Z,31.20
2023-01-05T03:59:18.817Z,32.42
2023-01-05T04:04:15.675Z,33.45
2023-01-05T04:09:14.415Z,28.80
2023-01-05T04:14:13.585Z,33.58
2023-01-05T04:19:11.668Z,33.90
2023-01-05T04:24:10.427Z,28.00
2023-01-05T04:29:11.261Z,30.27
2023-01-05T04:34:09.420Z,35.90
2023-01-05T04:39:08.022Z,33.17
2023-01-05T04:44:07.832Z,32.83
2023-01-05T04:49:06.138Z,32.40
2023-01-05T04:54:03.109Z,36.60
2023-01-05T04:59:00.955Z,34.78
2023-01-05T05:03:59.447Z,32.08
2023-01-05T05:08:57.129Z,32.13
2023-01-05T05:13:56.479Z,34.00
2023-01-05T05:18:56.498Z,36.15
2023-01-05T05:23:57.360Z,34.80
2023-01-05T05:28:54.221Z,33.45
2023-01-05T05:33:51.172Z,40.70
2023-01-05T05:38:48.242Z,37.42
2023-01-05T05:43:45.729Z,33.58
2023-01-05T05:48:42.527Z,34.80
2023-01-05T05:53:39.441Z,35.70
2023-01-05T05:58:36.522Z,30.35
2023-01-05T06:03:34.319Z,33.88
2023-01-05T06:08:31.286Z,32.22
2023-01-05T06:13:28.212Z,31.92
2023-01-05T06:18:28.111Z,31.75
2023-01-05T06:23:25.855Z,32.30
2023-01-05T06:28:24.306Z,37.00
2023-01-05T06:33:21.317Z,30.90
2023-01-05T06:38:18.291Z,32.72
2023-01-05T06:43:15.822Z,33.30
2023-01-05T06:48:15.495Z,34.53
2023-01-05T06:53:12.418Z,30.80
2023-01-05T06:58:09.360Z,32.65
2023-01-05T07:03:07.311Z,31.05
2023-01-05T07:08:04.608Z,31.58
2023-01-05T07:13:01.485Z,30.75
2023-01-05T07:17:58.343Z,32.97
2023-01-05T07:22:55.835Z,35.05
2023-01-05T07:27:52.885Z,34.47
2023-01-05T07:32:49.715Z,33.10
2023-01-05T07:37:46.621Z,33.83
2023-01-05T07:42:44.194Z,32.92
2023-01-05T07:47:41.196Z,35.63
2023-01-05T07:52:39.242Z,40.05
2023-01-05T07:57:36.622Z,36.58
2023-01-05T08:02:36.226Z,36.08
2023-01-05T08:07:35.034Z,32.72
2023-01-05T08:12:32.255Z,34.47
2023-01-05T08:17:29.230Z,36.95
2023-01-05T08:22:27.239Z,34.50
2023-01-05T08:27:25.867Z,30.65
2023-01-05T08:32:23.273Z,29.10
2023-01-05T08:37:20.247Z,33.45
2023-01-05T08:42:17.913Z,28.17
2023-01-05T08:47:17.996Z,33.63
2023-01-05T08:52:15.376Z,29.08
2023-01-05T08:57:12.313Z,30.05
2023-01-05T09:02:12.250Z,26.77
2023-01-05T09:07:09.427Z,28.13
2023-01-05T09:12:07.215Z,33.67
2023-01-05T09:17:08.388Z,28.85
2023-01-05T09:22:06.531Z,30.00
2023-01-05T09:27:04.929Z,28.27
2023-01-05T09:32:02.051Z,31.33
2023-01-05T09:36:59.065Z,29.00
2023-01-05T09:42:00.772Z,25.92
2023-01-05T09:47:02.600Z,26.60
2023-01-05T09:52:03.305Z,28.60
2023-01-05T09:57:10.592Z,27.30
2023-01-05T10:02:18.171Z,25.90
2023-01-05T10:07:23.522Z,28.38
2023-01-05T10:12:44.486Z,30.30
2023-01-05T10:17:43.711Z,30.05
2023-01-05T10:22:51.266Z,28.75
2023-01-05T10:27:58.313Z,30.63
2023-01-05T10:33:21.817Z,30.27
2023-01-05T10:38:31.516Z,28.50
2023-01-05T10:44:04.385Z,25.63
2023-01-05T10:49:01.893Z,25.23
2023-01-05T10:53:58.895Z,29.50
2023-01-05T10:59:14.820Z,25.40
2023-01-05T11:09:39.127Z,22.58
2023-01-05T11:14:43.335Z,24.17
2023-01-05T11:19:45.414Z,24.83
2023-01-05T11:24:42.598Z,22.05
2023-01-05T11:29:40.472Z,26.08
2023-01-05T11:34:41.771Z,20.92
2023-01-05T11:39:42.943Z,21.98
2023-01-05T11:44:43.495Z,21.95
2023-01-05T11:49:40.709Z,21.42
2023-01-05T11:54:38.773Z,22.30
2023-01-05T11:59:42.259Z,20.67
2023-01-05T12:05:03.705Z,19.40
2023-01-05T12:10:21.625Z,15.05
2023-01-05T12:15:54.994Z,16.88
2023-01-05T12:21:04.143Z,16.30
2023-01-05T12:26:10.320Z,15.38
2023-01-05T12:33:35.751Z,15.98
2023-01-05T12:37:21.706Z,14.82
2023-01-05T12:42:32.332Z,12.80
2023-01-05T12:47:48.675Z,16.63
2023-01-05T12:52:49.868Z,14.73
2023-01-05T12:57:53.523Z,13.70
2023-01-05T13:02:55.335Z,7.30
2023-01-05T13:07:56.893Z,12.63
2023-01-05T13:13:00.678Z,12.07
2023-01-05T13:18:01.311Z,8.82
2023-01-05T13:23:04.171Z,12.55
2023-01-05T13:28:00.984Z,11.63
2023-01-05T13:33:15.023Z,9.88
2023-01-05T13:38:37.223Z,12.48
2023-01-05T13:44:19.059Z,11.40
2023-01-05T13:49:44.380Z,9.88
2023-01-05T13:55:00.091Z,8.45
2023-01-05T14:00:12.033Z,8.63
2023-01-05T14:05:17.006Z,8.32
2023-01-05T14:10:23.422Z,8.90
2023-01-05T14:15:39.162Z,8.85
2023-01-05T14:25:52.786Z,8.98
2023-01-05T14:30:51.201Z,10.25
2023-01-05T14:36:04.293Z,10.50
2023-01-05T14:41:15.799Z,15.85
2023-01-05T14:46:15.153Z,11.43
2023-01-05T14:51:23.216Z,14.43
2023-01-05T14:56:24.162Z,15.82
2023-01-05T15:01:25.798Z,10.20
2023-01-05T15:06:34.936Z,12.68
2023-01-05T15:11:56.079Z,10.02
2023-01-05T15:17:15.277Z,12.15
2023-01-05T15:22:38.174Z,12.30
2023-01-05T15:27:54.038Z,11.25
2023-01-05T15:33:04.232Z,10.90
2023-01-05T15:38:19.115Z,12.60
2023-01-05T15:43:17.653Z,8.43
2023-01-05T15:48:20.526Z,10.05
2023-01-05T15:53:27.498Z,7.70
2023-01-05T15:58:27.785Z,12.05
2023-01-05T16:03:29.339Z,10.43
2023-01-05T16:08:27.513Z,12.35
2023-01-05T16:13:33.407Z,12.98
2023-01-05T16:18:45.031Z,28.83
2023-01-05T16:23:49.881Z,12.20
2023-01-05T16:28:47.597Z,13.00
2023-01-05T16:33:46.047Z,10.85
2023-01-05T16:38:46.572Z,10.07
2023-01-05T16:43:52.929Z,8.02
2023-01-05T16:48:52.273Z,9.57
2023-01-05T16:53:52.710Z,12.55
2023-01-05T16:58:53.167Z,9.70
2023-01-05T17:03:51.050Z,8.75
2023-01-05T17:08:48.333Z,8.35
2023-01-05T17:13:48.009Z,10.27
2023-01-05T17:18:46.134Z,10.13
2023-01-05T17:23:46.533Z,14.05
2023-01-05T17:28:46.240Z,12.18
2023-01-05T17:33:43.119Z,17.02
2023-01-05T17:38:40.930Z,16.58
2023-01-05T17:43:37.711Z,20.05
2023-01-05T17:48:36.963Z,16.27
2023-01-05T17:53:33.759Z,12.20
2023-01-05T17:58:31.427Z,13.77
2023-01-05T18:03:31.089Z,12.77
2023-01-05T18:08:28.165Z,11.38
2023-01-05T18:13:25.266Z,15.07
2023-01-05T18:18:23.659Z,12.68
2023-01-05T18:23:23.710Z,11.40
2023-01-05T18:28:20.572Z,11.25
2023-01-05T18:33:17.499Z,14.15
2023-01-05T18:38:15.138Z,12.80
2023-01-05T18:43:12.105Z,11.98
2023-01-05T18:48:09.135Z,12.88
2023-01-05T18:53:06.071Z,9.77
2023-01-05T18:58:03.648Z,12.13
2023-01-05T19:03:00.711Z,11.60
2023-01-05T19:07:57.621Z,13.52
2023-01-05T19:12:54.449Z,10.27
2023-01-05T19:17:52.938Z,10.13
2023-01-05T19:22:51.071Z,14.68
2023-01-05T19:27:47.843Z,17.00
2023-01-05T19:32:46.566Z,13.30
2023-01-05T19:37:44.745Z,10.70
2023-01-05T19:42:44.192Z,12.52
2023-01-05T19:47:43.194Z,10.50
2023-01-05T19:52:45.233Z,12.75
2023-01-05T19:57:42.906Z,11.88
2023-01-05T20:02:41.425Z,10.57
2023-01-05T20:07:40.964Z,12.50
2023-01-05T20:12:37.752Z,9.90
2023-01-05T20:17:35.403Z,13.70
2023-01-05T20:22:32.271Z,12.23
2023-01-05T20:27:29.130Z,11.52
2023-01-05T20:32:28.502Z,11.18
2023-01-05T20:37:27.896Z,9.90
2023-01-05T20:42:25.736Z,17.67
2023-01-05T20:47:22.715Z,13.02
2023-01-05T20:52:19.522Z,15.27
2023-01-05T20:57:17.106Z,12.90
2023-01-05T21:02:24.282Z,10.77
2023-01-05T21:07:22.601Z,12.57
2023-01-05T21:12:20.708Z,12.05
2023-01-05T21:17:17.620Z,11.88
2023-01-05T21:22:15.018Z,8.32
2023-01-05T21:27:11.941Z,11.60
2023-01-05T21:32:09.655Z,10.70
2023-01-05T21:37:06.473Z,10.02
2023-01-05T21:42:21.267Z,11.40
2023-01-05T21:47:18.939Z,9.73
2023-01-05T21:52:34.068Z,12.70
2023-01-05T21:57:30.994Z,8.90
2023-01-05T22:02:28.721Z,10.27
2023-01-05T22:07:25.847Z,10.05
2023-01-05T22:12:22.764Z,8.60
2023-01-05T22:17:19.553Z,11.35
2023-01-05T22:22:17.220Z,9.30
2023-01-05T22:27:14.165Z,11.73
2023-01-05T22:32:11.099Z,10.50
2023-01-05T22:37:07.973Z,12.00
2023-01-05T22:42:05.701Z,8.48
2023-01-05T22:47:02.534Z,11.25
2023-01-05T22:51:59.422Z,10.80
2023-01-05T22:56:56.526Z,13.30
2023-01-05T23:01:54.169Z,9.65
2023-01-05T23:06:51.266Z,10.02
2023-01-05T23:11:48.165Z,11.27
2023-01-05T23:16:45.302Z,11.77
2023-01-05T23:21:43.051Z,12.77
2023-01-05T23:26:39.879Z,11.30
2023-01-05T23:31:37.007Z,10.50
2023-01-05T23:36:33.793Z,10.55
2023-01-05T23:41:31.382Z,9.48
2023-01-05T23:46:28.225Z,11.85
2023-01-05T23:51:25.157Z,11.00
2023-01-05T23:56:23.598Z,10.38
